Time;durP1;ratioP1;P1;durP2;ratioP2;P2;SDS_P1;SDS_P2;PMS_P1;PMS_P2;Temp;Humidity;BMP_temperature;BMP_pressure;BME280_temperature;BME280_humidity;BME280_pressure;Samples;Min_cycle;Max_cycle;Signal;HPM_P1;HPM_P2
2021/11/10 00:00:06;;;;;;;23.65;11.55;;;;;;;-0.55;94.59;99564.38;4985789;28;20054;-89
2021/11/10 00:02:31;;;;;;;32.00;12.48;;;;;;;-0.51;94.37;99567.16;4986579;28;20319;-88
2021/11/10 00:04:57;;;;;;;37.38;12.50;;;;;;;-0.60;94.33;99556.44;4985326;28;20074;-88
2021/11/10 00:07:22;;;;;;;34.05;12.88;;;;;;;-0.62;94.43;99558.09;4986175;28;20102;-89
2021/11/10 00:09:47;;;;;;;26.70;11.50;;;;;;;-0.75;94.78;99561.03;4987521;28;20050;-89
2021/11/10 00:12:13;;;;;;;27.77;12.50;;;;;;;-0.58;95.30;99565.16;4986440;28;20022;-89
2021/11/10 00:14:39;;;;;;;29.75;11.75;;;;;;;-0.65;94.66;99563.16;4987509;28;20037;-88
2021/11/10 00:17:04;;;;;;;31.05;12.07;;;;;;;-0.72;94.66;99561.16;4986131;28;20030;-88
2021/11/10 00:19:30;;;;;;;27.90;11.82;;;;;;;-0.66;95.00;99571.72;4986183;28;20031;-88
2021/11/10 00:21:55;;;;;;;30.52;12.20;;;;;;;-0.75;95.09;99578.25;4986313;28;20034;-88
2021/11/10 00:24:21;;;;;;;29.48;12.48;;;;;;;-0.76;94.92;99569.59;4999802;28;20336;-88
2021/11/10 00:26:46;;;;;;;30.05;10.75;;;;;;;-0.83;95.12;99559.84;5006657;28;20052;-88
2021/11/10 00:29:12;;;;;;;27.70;11.32;;;;;;;-0.82;95.69;99559.00;5005447;28;20026;-88
2021/11/10 00:31:37;;;;;;;24.27;10.20;;;;;;;-0.82;95.40;99564.19;5005324;28;20022;-88
2021/11/10 00:34:03;;;;;;;23.02;10.18;;;;;;;-0.88;95.13;99557.91;5005764;28;20034;-88
2021/11/10 00:36:28;;;;;;;22.35;9.73;;;;;;;-0.92;96.24;99558.59;5005409;28;20030;-88
2021/11/10 00:38:54;;;;;;;27.38;10.82;;;;;;;-0.84;95.26;99567.53;5004541;28;20026;-88
2021/11/10 00:41:19;;;;;;;25.08;10.13;;;;;;;-0.91;95.03;99561.25;5005453;28;20049;-88
2021/11/10 00:43:45;;;;;;;20.33;9.40;;;;;;;-0.96;94.88;99569.63;5005551;28;20018;-88
2021/11/10 00:46:10;;;;;;;22.20;10.13;;;;;;;-0.85;95.44;99579.56;5005203;28;20014;-88
2021/11/10 00:48:36;;;;;;;20.73;9.93;;;;;;;-1.03;95.36;99563.34;5005258;28;20018;-89
2021/11/10 00:51:02;;;;;;;25.17;10.52;;;;;;;-0.87;95.27;99560.53;5006250;28;20037;-88
2021/11/10 00:53:28;;;;;;;26.52;11.98;;;;;;;-0.78;94.69;99565.19;5005389;28;20026;-88
2021/11/10 00:55:53;;;;;;;23.85;10.70;;;;;;;-0.72;94.47;99561.16;5005217;28;20018;-88
2021/11/10 00:58:18;;;;;;;30.25;12.18;;;;;;;-0.75;94.36;99555.88;5004926;28;20194;-88
2021/11/10 01:00:45;;;;;;;27.25;12.63;;;;;;;-0.77;94.38;99551.44;5005119;28;20225;-88
2021/11/10 01:03:12;;;;;;;34.08;12.45;;;;;;;-0.81;94.66;99560.78;5005174;28;20077;-88
2021/11/10 01:05:39;;;;;;;36.78;11.68;;;;;;;-0.99;94.25;99565.22;5003370;28;20029;-88
2021/11/10 01:08:05;;;;;;;26.40;11.30;;;;;;;-1.12;94.39;99556.91;5004813;28;20046;-88
2021/11/10 01:10:31;;;;;;;23.35;11.18;;;;;;;-1.04;94.43;99551.22;5004862;28;20022;-88
2021/11/10 01:12:56;;;;;;;27.92;11.27;;;;;;;-1.10;94.55;99540.66;5005211;28;20022;-89
2021/11/10 01:15:22;;;;;;;33.50;11.25;;;;;;;-1.25;95.53;99565.84;5004660;28;20221;-88
2021/11/10 01:17:48;;;;;;;24.90;11.85;;;;;;;-1.11;96.06;99554.38;5004652;28;20030;-88
2021/11/10 01:20:14;;;;;;;26.50;11.40;;;;;;;-1.12;94.88;99537.13;5004890;28;20044;-88
2021/11/10 01:22:40;;;;;;;26.08;11.05;;;;;;;-1.11;95.26;99528.53;5005161;28;20018;-88
2021/11/10 01:25:08;;;;;;;27.35;11.30;;;;;;;-1.07;95.32;99520.13;5004449;28;20026;-88
2021/11/10 01:27:34;;;;;;;21.60;10.40;;;;;;;-0.96;94.75;99524.00;5004518;28;20018;-88
2021/11/10 01:30:00;;;;;;;29.83;11.55;;;;;;;-0.94;94.01;99526.66;5011385;28;20014;-88
2021/11/10 01:32:26;;;;;;;27.80;10.95;;;;;;;-1.23;93.74;99532.34;5009679;28;20064;-88
2021/11/10 01:34:51;;;;;;;23.35;10.35;;;;;;;-1.32;95.30;99537.13;5004725;28;20022;-88
2021/11/10 01:37:17;;;;;;;24.83;11.25;;;;;;;-1.25;95.24;99547.78;5004861;28;20045;-88
2021/11/10 01:39:43;;;;;;;28.50;11.07;;;;;;;-1.06;94.95;99542.53;5004513;28;20167;-88
2021/11/10 01:42:09;;;;;;;23.10;11.20;;;;;;;-1.14;95.07;99538.75;5004547;28;20105;-88
2021/11/10 01:44:37;;;;;;;22.75;10.23;;;;;;;-1.33;94.96;99541.41;5004621;28;20198;-88
2021/11/10 01:47:06;;;;;;;24.88;10.45;;;;;;;-1.22;95.97;99545.31;5004459;28;20024;-88
2021/11/10 01:49:31;;;;;;;24.30;9.98;;;;;;;-1.19;95.39;99547.16;5004609;28;20329;-88
2021/11/10 01:51:58;;;;;;;22.85;9.73;;;;;;;-1.12;95.40;99552.63;5009463;28;20022;-88
2021/11/10 01:54:28;;;;;;;23.23;10.30;;;;;;;-1.06;95.05;99552.88;5008687;28;20049;-88
2021/11/10 01:56:54;;;;;;;24.52;11.50;;;;;;;-1.23;94.79;99564.19;5008361;28;20046;-88
2021/11/10 01:59:40;;;;;;;23.98;10.25;;;;;;;-1.25;95.45;99568.44;5008567;28;20073;-88
2021/11/10 02:02:11;;;;;;;22.70;9.18;;;;;;;-1.18;95.04;99565.28;5008355;28;20026;-88
2021/11/10 02:04:39;;;;;;;21.77;9.20;;;;;;;-1.18;94.97;99557.53;5009502;28;20026;-88
2021/11/10 02:07:05;;;;;;;26.30;10.23;;;;;;;-1.09;94.41;99547.59;5007966;28;20042;-89
2021/11/10 02:09:31;;;;;;;23.95;8.70;;;;;;;-1.02;94.18;99549.59;5008322;28;20049;-88
2021/11/10 02:11:58;;;;;;;24.48;10.93;;;;;;;-0.97;93.81;99542.91;5008264;28;20019;-88
2021/11/10 02:14:27;;;;;;;20.42;10.15;;;;;;;-1.08;94.23;99541.59;5009180;28;20310;-88
2021/11/10 02:16:54;;;;;;;34.53;11.13;;;;;;;-1.17;94.55;99556.72;5008000;28;20056;-88
2021/11/10 02:19:20;;;;;;;27.58;11.30;;;;;;;-1.09;93.31;99542.41;5008644;28;20025;-88
2021/11/10 02:21:50;;;;;;;16.45;9.00;;;;;;;-1.21;93.39;99539.34;5007981;28;20093;-88
2021/11/10 02:24:17;;;;;;;20.75;8.93;;;;;;;-1.18;93.57;99521.38;5007944;28;20191;-88
2021/11/10 02:26:45;;;;;;;23.63;10.55;;;;;;;-1.25;94.40;99519.38;5008097;28;20028;-88
2021/11/10 02:29:16;;;;;;;25.85;9.82;;;;;;;-1.21;94.47;99523.84;5008100;28;20054;-88
2021/11/10 02:31:44;;;;;;;20.73;9.68;;;;;;;-1.20;94.58;99524.72;5008132;28;20022;-88
2021/11/10 02:34:10;;;;;;;19.80;9.60;;;;;;;-1.22;94.35;99519.50;5008016;28;20034;-88
2021/11/10 02:36:35;;;;;;;22.60;9.93;;;;;;;-1.18;94.77;99500.72;5008184;28;20073;-88
2021/11/10 02:39:05;;;;;;;26.15;10.75;;;;;;;-1.14;94.13;99492.25;5008280;28;20029;-88
2021/11/10 02:41:31;;;;;;;20.13;9.68;;;;;;;-1.05;93.54;99502.97;5009038;28;20022;-88
2021/11/10 02:43:57;;;;;;;22.10;9.50;;;;;;;-1.34;92.74;99503.50;5008209;28;20367;-88
2021/11/10 02:46:24;;;;;;;18.30;9.75;;;;;;;-1.35;92.97;99495.69;5007895;28;20018;-88
2021/11/10 02:48:49;;;;;;;20.92;9.82;;;;;;;-1.47;94.68;99480.59;5008139;28;20037;-88
2021/11/10 02:51:15;;;;;;;23.85;10.30;;;;;;;-1.59;94.60;99490.41;5007904;28;20047;-88
2021/11/10 02:53:41;;;;;;;19.02;9.10;;;;;;;-1.42;95.14;99504.00;5007865;28;20022;-88
2021/11/10 02:56:07;;;;;;;27.30;10.43;;;;;;;-1.35;94.99;99488.84;5007589;28;20042;-88
2021/11/10 02:58:35;;;;;;;22.55;9.70;;;;;;;-1.55;95.25;99481.97;5007563;28;20026;-88
2021/11/10 03:01:01;;;;;;;22.80;9.63;;;;;;;-1.46;95.56;99486.66;5007249;28;20018;-88
2021/11/10 03:03:27;;;;;;;23.20;9.50;;;;;;;-1.43;95.44;99489.34;5006160;28;20030;-88
2021/11/10 03:05:53;;;;;;;22.90;9.25;;;;;;;-1.38;95.04;99480.97;5007285;28;20097;-88
2021/11/10 03:08:22;;;;;;;19.63;8.98;;;;;;;-1.26;94.47;99471.13;5005519;28;20049;-87
2021/11/10 03:10:48;;;;;;;22.75;9.63;;;;;;;-1.22;93.86;99462.69;5005605;28;20022;-87
2021/11/10 03:13:14;;;;;;;28.42;10.75;;;;;;;-1.34;93.94;99444.13;5005700;28;20340;-87
2021/11/10 03:15:42;;;;;;;27.08;9.43;;;;;;;-1.39;94.09;99448.19;5006384;28;20100;-87
2021/11/10 03:18:07;;;;;;;27.63;10.00;;;;;;;-1.32;94.18;99439.91;5005145;28;20093;-87
2021/11/10 03:20:33;;;;;;;22.55;10.00;;;;;;;-1.61;93.28;99435.28;5005207;28;20325;-87
2021/11/10 03:22:59;;;;;;;29.85;10.73;;;;;;;-1.70;93.94;99429.72;5004211;28;20022;-87
2021/11/10 03:25:25;;;;;;;23.25;10.48;;;;;;;-1.63;94.55;99444.66;5004571;28;20030;-87
2021/11/10 03:27:51;;;;;;;18.60;8.68;;;;;;;-1.63;94.99;99447.22;5004860;28;20080;-87
2021/11/10 03:30:17;;;;;;;19.50;8.90;;;;;;;-1.53;94.72;99454.53;5005910;28;20030;-87
2021/11/10 03:32:43;;;;;;;20.58;9.45;;;;;;;-1.58;94.44;99445.69;5004497;28;20225;-87
2021/11/10 03:35:09;;;;;;;20.05;9.05;;;;;;;-1.49;94.69;99443.50;5004001;28;20053;-87
2021/11/10 03:37:35;;;;;;;18.90;9.32;;;;;;;-1.57;94.58;99434.56;5004304;28;20022;-87
2021/11/10 03:40:03;;;;;;;24.88;9.63;;;;;;;-1.38;94.22;99428.44;5004325;28;20033;-87
2021/11/10 03:42:28;;;;;;;24.70;9.25;;;;;;;-1.40;93.66;99420.63;5004462;28;20029;-87
2021/11/10 03:44:54;;;;;;;19.58;9.82;;;;;;;-1.53;93.69;99418.38;5004875;28;20014;-87
2021/11/10 03:47:19;;;;;;;24.90;10.73;;;;;;;-1.52;94.33;99409.81;5005828;28;20014;-87
2021/11/10 03:49:44;;;;;;;20.60;9.27;;;;;;;-1.40;94.50;99418.03;5005633;28;20065;-87
2021/11/10 03:52:11;;;;;;;20.83;9.60;;;;;;;-1.60;93.92;99408.63;5004725;28;20026;-87
2021/11/10 03:54:37;;;;;;;20.10;8.88;;;;;;;-1.47;94.63;99428.06;5006042;28;20095;-87
2021/11/10 03:57:03;;;;;;;17.77;8.70;;;;;;;-1.43;93.78;99438.59;5004498;28;20030;-87
2021/11/10 03:59:28;;;;;;;16.73;8.10;;;;;;;-1.40;94.00;99442.97;5004582;28;20025;-87
2021/11/10 04:01:54;;;;;;;29.20;9.38;;;;;;;-1.41;93.69;99455.03;5004466;28;20026;-87
2021/11/10 04:04:19;;;;;;;20.55;8.65;;;;;;;-1.44;94.25;99444.56;5005555;28;20022;-87
2021/11/10 04:06:45;;;;;;;18.58;8.82;;;;;;;-1.36;94.16;99432.84;5005591;28;20073;-87
2021/11/10 04:09:10;;;;;;;18.33;9.40;;;;;;;-1.29;93.41;99442.63;5004699;28;20030;-87
2021/11/10 04:11:36;;;;;;;18.67;9.63;;;;;;;-1.22;93.28;99447.19;5004411;28;20052;-87
2021/11/10 04:14:02;;;;;;;24.38;9.80;;;;;;;-1.26;93.39;99450.47;5003095;28;20030;-87
2021/11/10 04:16:28;;;;;;;26.30;8.55;;;;;;;-1.18;93.18;99474.88;5004312;28;20041;-87
2021/11/10 04:18:55;;;;;;;20.98;10.15;;;;;;;-1.38;93.82;99460.31;5004529;28;20302;-87
2021/11/10 04:21:22;;;;;;;22.05;9.10;;;;;;;-1.29;94.21;99475.28;5005544;28;20089;-87
2021/11/10 04:23:52;;;;;;;21.10;7.97;;;;;;;-1.28;94.03;99477.03;5004268;28;20014;-87
2021/11/10 04:26:19;;;;;;;15.15;7.85;;;;;;;-1.22;94.19;99473.00;5004241;28;20088;-87
2021/11/10 04:28:44;;;;;;;32.05;10.10;;;;;;;-1.27;94.12;99474.50;5003599;28;20097;-87
2021/11/10 04:31:10;;;;;;;21.85;8.65;;;;;;;-1.32;94.51;99481.22;5003978;28;20018;-87
2021/11/10 04:33:35;;;;;;;26.90;8.98;;;;;;;-1.21;94.16;99468.72;5003875;28;20026;-87
2021/11/10 04:36:01;;;;;;;13.88;8.10;;;;;;;-1.31;94.19;99462.31;5004830;28;20021;-87
2021/11/10 04:38:26;;;;;;;22.70;8.82;;;;;;;-1.37;93.66;99448.25;5014650;28;20057;-87
2021/11/10 04:40:52;;;;;;;24.05;9.63;;;;;;;-1.53;94.10;99454.53;5003747;28;20052;-87
2021/11/10 04:43:18;;;;;;;19.65;9.25;;;;;;;-1.62;94.79;99472.22;5004884;28;20221;-87
2021/11/10 04:45:46;;;;;;;18.50;8.30;;;;;;;-1.63;95.98;99473.03;5003806;28;20077;-87
2021/11/10 04:48:12;;;;;;;15.73;8.23;;;;;;;-1.35;95.89;99478.50;5003707;28;20104;-87
2021/11/10 04:50:41;;;;;;;22.55;9.13;;;;;;;-1.41;94.98;99470.50;5003537;28;20102;-87
2021/11/10 04:53:08;;;;;;;24.88;9.05;;;;;;;-1.34;95.03;99477.69;5002938;28;20263;-87
2021/11/10 04:55:34;;;;;;;12.73;6.90;;;;;;;-1.32;95.02;99486.38;5003214;28;20036;-87
2021/11/10 04:57:59;;;;;;;24.05;8.40;;;;;;;-1.23;95.23;99491.88;5003422;28;20278;-86
2021/11/10 05:00:25;;;;;;;20.77;9.30;;;;;;;-1.14;94.40;99492.25;5003893;28;20022;-87
2021/11/10 05:02:51;;;;;;;16.10;8.35;;;;;;;-1.16;94.30;99503.38;5004591;28;20053;-88
2021/11/10 05:05:16;;;;;;;21.30;8.63;;;;;;;-1.12;94.09;99495.81;5004495;28;20191;-87
2021/11/10 05:07:42;;;;;;;16.85;7.90;;;;;;;-1.23;93.31;99481.56;5004076;28;20042;-87
2021/11/10 05:10:08;;;;;;;20.23;8.30;;;;;;;-1.28;92.79;99475.34;5003890;28;20026;-87
2021/11/10 05:12:35;;;;;;;20.67;8.18;;;;;;;-1.30;92.98;99452.88;5003955;28;20226;-92
2021/11/10 05:15:01;;;;;;;17.63;8.45;;;;;;;-1.24;93.29;99461.72;4987911;28;20314;-86
2021/11/10 05:17:27;;;;;;;21.45;8.77;;;;;;;-1.22;93.74;99469.53;5003940;28;20049;-86
2021/11/10 05:19:53;;;;;;;16.77;8.48;;;;;;;-1.19;94.06;99452.47;5003655;28;20026;-87
2021/11/10 05:22:19;;;;;;;18.27;8.57;;;;;;;-1.23;93.28;99444.53;5003643;28;20026;-87
2021/11/10 05:24:44;;;;;;;13.80;8.13;;;;;;;-1.57;93.41;99432.00;5003301;28;20097;-87
2021/11/10 05:27:10;;;;;;;23.30;8.70;;;;;;;-1.72;94.42;99430.47;5004159;28;20026;-88
2021/11/10 05:29:36;;;;;;;16.48;8.25;;;;;;;-1.58;94.91;99439.66;5003834;28;20130;-89
2021/11/10 05:32:02;;;;;;;18.95;8.52;;;;;;;-1.74;95.66;99438.16;5004133;28;20089;-88
2021/11/10 05:34:28;;;;;;;28.27;8.15;;;;;;;-1.59;95.90;99443.94;5004223;28;20026;-87
2021/11/10 05:36:53;;;;;;;22.65;8.82;;;;;;;-1.49;96.14;99446.06;5009162;28;20042;-88
2021/11/10 05:39:19;;;;;;;20.40;8.07;;;;;;;-1.35;95.45;99447.53;5003749;28;20026;-88
2021/11/10 05:41:46;;;;;;;33.10;8.98;;;;;;;-1.38;95.16;99460.31;5004476;28;20036;-88
2021/11/10 05:44:13;;;;;;;16.42;8.23;;;;;;;-1.34;95.76;99441.53;5004112;28;20030;-87
2021/11/10 05:46:39;;;;;;;19.13;8.35;;;;;;;-1.20;95.25;99455.84;5003986;28;20085;-87
2021/11/10 05:49:04;;;;;;;19.83;8.05;;;;;;;-1.09;95.26;99454.59;5003777;28;20380;-87
2021/11/10 05:51:29;;;;;;;22.35;9.05;;;;;;;-1.01;94.46;99450.59;5003610;28;20056;-88
2021/11/10 05:53:56;;;;;;;21.75;9.90;;;;;;;-0.95;94.13;99461.16;5003604;28;20056;-87
2021/11/10 05:56:22;;;;;;;24.65;9.07;;;;;;;-0.96;93.79;99455.94;5003585;28;20026;-87
2021/11/10 05:58:49;;;;;;;20.40;9.15;;;;;;;-0.99;94.17;99446.38;5003122;28;20026;-87
2021/11/10 06:01:15;;;;;;;19.85;9.20;;;;;;;-1.03;94.24;99439.34;5002875;28;20336;-87
2021/11/10 06:03:41;;;;;;;15.00;8.05;;;;;;;-1.20;94.77;99450.69;5003821;28;20018;-88
2021/11/10 06:06:07;;;;;;;21.02;7.88;;;;;;;-1.26;94.96;99445.31;5004522;28;20029;-87
2021/11/10 06:08:37;;;;;;;16.80;7.75;;;;;;;-1.34;94.95;99446.69;5004890;28;20026;-88
2021/11/10 06:11:07;;;;;;;19.67;8.25;;;;;;;-1.35;94.75;99465.59;5003777;28;20022;-88
2021/11/10 06:13:33;;;;;;;23.95;9.57;;;;;;;-1.52;95.07;99453.69;5003960;28;20018;-87
2021/11/10 06:15:58;;;;;;;18.13;7.80;;;;;;;-1.29;95.41;99455.53;5003914;28;20233;-87
2021/11/10 06:18:24;;;;;;;16.05;8.38;;;;;;;-1.27;94.99;99453.84;5003421;28;20061;-87
2021/11/10 06:20:49;;;;;;;19.50;9.35;;;;;;;-1.36;95.00;99468.97;5003613;28;20026;-87
2021/11/10 06:23:15;;;;;;;25.15;10.23;;;;;;;-1.40;95.38;99467.09;5005467;28;20306;-90
2021/11/10 06:25:40;;;;;;;22.90;9.10;;;;;;;-1.25;95.36;99462.56;5003930;28;20105;-89
2021/11/10 06:28:06;;;;;;;13.40;8.60;;;;;;;-1.35;94.88;99457.84;5003701;28;20343;-90
2021/11/10 06:30:31;;;;;;;19.98;8.68;;;;;;;-1.38;94.52;99469.75;5001702;28;20027;-87
2021/11/10 06:32:59;;;;;;;18.00;7.85;;;;;;;-1.25;95.03;99467.72;5002197;28;20253;-88
2021/11/10 06:35:25;;;;;;;21.70;7.38;;;;;;;-1.20;94.86;99470.50;5002554;28;20029;-88
2021/11/10 06:37:50;;;;;;;20.80;8.23;;;;;;;-1.42;94.88;99468.75;5003927;28;20317;-87
2021/11/10 06:40:16;;;;;;;17.23;8.65;;;;;;;-1.39;95.62;99479.19;5006306;28;20018;-87
2021/11/10 06:42:41;;;;;;;19.75;8.52;;;;;;;-1.35;95.36;99481.09;5005539;28;20045;-87
2021/11/10 06:45:07;;;;;;;18.88;7.82;;;;;;;-1.46;95.30;99484.06;5006001;28;20022;-87
2021/11/10 06:47:33;;;;;;;16.67;7.82;;;;;;;-1.47;95.65;99480.59;5005890;28;20022;-87
2021/11/10 06:49:59;;;;;;;24.92;9.00;;;;;;;-1.41;95.46;99474.78;5005852;28;20368;-87
2021/11/10 06:52:24;;;;;;;18.73;9.45;;;;;;;-1.27;95.44;99477.09;5005709;28;20214;-87
2021/11/10 06:54:51;;;;;;;19.98;8.02;;;;;;;-1.17;95.00;99480.94;5005912;28;20049;-87
2021/11/10 06:57:17;;;;;;;16.13;7.82;;;;;;;-1.08;94.51;99478.72;5006611;28;20023;-87
2021/11/10 06:59:42;;;;;;;18.75;7.43;;;;;;;-0.94;94.00;99481.03;5005736;28;20255;-87
2021/11/10 07:02:08;;;;;;;16.40;8.10;;;;;;;-0.96;94.17;99482.66;5006626;28;20088;-88
2021/11/10 07:04:34;;;;;;;15.60;7.55;;;;;;;-0.84;93.90;99488.31;5005742;28;20191;-87
2021/11/10 07:07:00;;;;;;;21.98;8.75;;;;;;;-0.73;93.46;99480.97;5005752;28;20046;-88
2021/11/10 07:09:25;;;;;;;21.92;9.10;;;;;;;-0.81;93.96;99478.09;5005229;28;20105;-88
2021/11/10 07:11:51;;;;;;;18.20;8.73;;;;;;;-0.71;93.93;99489.66;5006586;28;20018;-87
2021/11/10 07:14:16;;;;;;;24.35;9.40;;;;;;;-0.71;93.81;99497.41;5005832;28;20025;-88
2021/11/10 07:16:42;;;;;;;18.75;7.55;;;;;;;-0.64;93.33;99486.47;5005537;28;20037;-88
2021/11/10 07:19:07;;;;;;;21.25;8.15;;;;;;;-0.74;92.48;99485.25;5005383;28;20022;-88
2021/11/10 07:21:33;;;;;;;16.55;7.10;;;;;;;-1.06;93.08;99464.16;5005279;28;20022;-88
2021/11/10 07:23:58;;;;;;;19.52;8.77;;;;;;;-0.85;93.81;99486.53;5004929;28;20018;-88
2021/11/10 07:26:24;;;;;;;14.63;7.35;;;;;;;-0.74;94.08;99487.84;5005447;28;20014;-88
2021/11/10 07:28:51;;;;;;;17.48;7.32;;;;;;;-0.84;93.91;99483.16;5005626;28;20213;-88
2021/11/10 07:31:16;;;;;;;18.88;8.30;;;;;;;-0.76;93.42;99492.06;5005172;28;20026;-88
2021/11/10 07:33:42;;;;;;;16.05;7.93;;;;;;;-1.10;94.45;99491.59;5005065;28;20097;-88
2021/11/10 07:36:07;;;;;;;18.02;8.25;;;;;;;-1.06;94.94;99493.47;5005060;28;20061;-88
2021/11/10 07:38:39;;;;;;;16.75;7.13;;;;;;;-0.89;94.58;99505.31;5005285;28;20023;-88
2021/11/10 07:41:05;;;;;;;30.85;13.23;;;;;;;-0.71;94.25;99500.00;5005135;28;20018;-88
2021/11/10 07:43:31;;;;;;;38.40;11.02;;;;;;;-0.80;94.07;99495.34;5005065;28;20467;-88
2021/11/10 07:46:03;;;;;;;62.97;30.10;;;;;;;-0.72;95.27;99498.25;5005125;28;20049;-88
2021/11/10 07:48:29;;;;;;;291.40;79.97;;;;;;;-0.60;95.74;99512.50;5004280;28;20099;-88
2021/11/10 07:50:55;;;;;;;278.95;76.72;;;;;;;-0.43;95.51;99519.22;5004944;28;20092;-88
2021/11/10 07:53:20;;;;;;;180.25;48.95;;;;;;;-0.33;94.86;99516.13;4988534;28;20030;-88
2021/11/10 07:55:45;;;;;;;92.57;29.85;;;;;;;-0.28;95.27;99499.06;5004894;28;20018;-88
2021/11/10 07:58:11;;;;;;;39.45;15.05;;;;;;;-0.03;94.51;99496.53;5004803;28;20026;-88
2021/11/10 08:00:38;;;;;;;34.38;14.50;;;;;;;0.13;94.17;99508.34;5003888;28;20022;-88
2021/11/10 08:03:04;;;;;;;51.30;16.65;;;;;;;0.25;93.67;99518.22;5004754;28;20018;-87
2021/11/10 08:05:31;;;;;;;29.20;13.32;;;;;;;0.22;94.54;99531.06;5004099;28;20324;-87
2021/11/10 08:07:56;;;;;;;51.92;17.40;;;;;;;0.29;94.82;99540.81;5003758;28;20045;-87
2021/11/10 08:10:22;;;;;;;109.15;32.47;;;;;;;0.26;95.17;99532.94;5004018;28;20221;-88
2021/11/10 08:12:48;;;;;;;79.43;25.83;;;;;;;0.36;95.12;99537.59;5003847;28;20216;-87
2021/11/10 08:15:15;;;;;;;48.45;17.33;;;;;;;0.55;94.42;99545.16;5003691;28;20057;-88
2021/11/10 08:17:41;;;;;;;36.42;14.65;;;;;;;0.49;94.22;99534.59;5004402;28;20310;-87
2021/11/10 08:20:11;;;;;;;34.08;12.60;;;;;;;0.53;94.85;99533.91;5003973;28;20245;-88
2021/11/10 08:22:37;;;;;;;29.35;11.98;;;;;;;0.56;94.96;99537.44;5004278;28;20025;-88
2021/11/10 08:25:05;;;;;;;33.90;12.48;;;;;;;0.63;94.32;99533.38;5004331;28;20026;-88
2021/11/10 08:27:31;;;;;;;36.33;13.90;;;;;;;0.64;93.83;99537.72;5003505;28;20026;-88
2021/11/10 08:29:57;;;;;;;38.75;15.23;;;;;;;0.42;94.47;99533.53;5003849;28;20096;-88
2021/11/10 08:32:22;;;;;;;92.38;43.10;;;;;;;0.41;94.49;99538.66;5003910;28;20314;-88
2021/11/10 08:34:48;;;;;;;128.38;43.88;;;;;;;0.32;94.52;99546.09;5003690;28;20367;-88
2021/11/10 08:37:13;;;;;;;119.93;41.28;;;;;;;0.41;95.61;99561.94;5003553;28;20092;-87
2021/11/10 08:39:39;;;;;;;99.82;33.78;;;;;;;0.48;95.93;99558.75;5003776;28;20026;-88
2021/11/10 08:42:08;;;;;;;89.95;34.83;;;;;;;0.71;95.76;99555.22;5004311;28;20026;-88
2021/11/10 08:44:36;;;;;;;96.57;36.30;;;;;;;0.83;94.03;99543.56;5003544;28;20207;-88
2021/11/10 08:47:04;;;;;;;86.05;34.17;;;;;;;0.65;94.14;99536.88;5003643;28;20246;-88
2021/11/10 08:49:30;;;;;;;90.15;32.10;;;;;;;0.60;94.87;99538.44;5003860;28;20318;-87
2021/11/10 08:51:57;;;;;;;72.00;28.20;;;;;;;0.54;95.69;99533.91;5003707;28;20253;-87
2021/11/10 08:54:25;;;;;;;145.93;59.80;;;;;;;0.72;95.58;99538.84;5003099;28;20045;-88
2021/11/10 08:56:52;;;;;;;78.45;36.97;;;;;;;0.79;95.38;99531.31;5003308;28;20029;-88
2021/11/10 08:59:19;;;;;;;54.47;22.95;;;;;;;0.99;95.04;99535.47;5003320;28;20093;-88
2021/11/10 09:01:44;;;;;;;53.55;24.17;;;;;;;0.90;94.64;99539.44;5003074;28;20022;-87
2021/11/10 09:04:09;;;;;;;66.18;24.42;;;;;;;0.84;94.50;99529.78;5003100;28;20270;-87
2021/11/10 09:06:35;;;;;;;66.28;29.38;;;;;;;0.92;94.84;99548.16;5002983;28;20065;-87
2021/11/10 09:09:00;;;;;;;46.55;20.48;;;;;;;1.05;95.17;99545.16;5003032;28;20199;-87
2021/11/10 09:11:26;;;;;;;31.45;15.73;;;;;;;1.53;94.41;99562.25;5003068;28;20369;-87
2021/11/10 09:13:51;;;;;;;36.95;14.52;;;;;;;1.86;93.69;99555.44;5003055;28;20213;-87
2021/11/10 09:16:17;;;;;;;35.33;14.57;;;;;;;2.03;92.10;99562.91;5002947;28;20053;-87
2021/11/10 09:18:42;;;;;;;31.98;17.50;;;;;;;1.96;92.27;99560.06;5003206;28;20026;-87
2021/11/10 09:21:09;;;;;;;32.40;16.73;;;;;;;2.23;92.12;99560.88;5002430;28;20034;-87
2021/11/10 09:23:35;;;;;;;29.48;16.70;;;;;;;2.47;90.83;99566.75;5002757;28;20049;-87
2021/11/10 09:26:01;;;;;;;31.77;15.55;;;;;;;2.71;90.28;99558.72;5003047;28;20029;-87
2021/11/10 09:28:27;;;;;;;27.80;15.65;;;;;;;2.69;89.67;99548.28;5002963;28;20026;-87
2021/11/10 09:30:54;;;;;;;37.75;17.17;;;;;;;2.71;90.36;99557.00;5003010;28;20056;-87
2021/11/10 09:33:21;;;;;;;39.28;20.27;;;;;;;2.86;90.56;99553.91;5002232;28;20097;-87
2021/11/10 09:35:48;;;;;;;37.85;20.75;;;;;;;2.94;90.61;99555.84;5003751;28;20365;-87
2021/11/10 09:38:13;;;;;;;50.85;20.67;;;;;;;2.99;91.18;99563.78;5002804;28;20102;-87
2021/11/10 09:40:41;;;;;;;33.08;16.05;;;;;;;3.03;90.68;99582.09;5002956;28;20022;-87
2021/11/10 09:43:08;;;;;;;40.67;17.05;;;;;;;2.95;91.34;99586.25;5002692;28;20018;-87
2021/11/10 09:45:35;;;;;;;37.25;17.10;;;;;;;3.05;91.13;99584.75;5003541;28;20349;-87
2021/11/10 09:48:04;;;;;;;42.03;16.13;;;;;;;3.02;92.34;99580.34;5002460;28;20018;-87
2021/11/10 09:50:31;;;;;;;47.33;24.00;;;;;;;3.10;91.88;99571.00;5003709;28;20261;-87
2021/11/10 09:52:58;;;;;;;45.42;22.05;;;;;;;3.05;90.90;99567.44;5002547;28;20029;-87
2021/11/10 09:55:26;;;;;;;48.10;24.92;;;;;;;2.80;91.27;99562.44;5002759;28;20328;-87
2021/11/10 09:57:52;;;;;;;48.22;25.70;;;;;;;2.71;92.49;99562.19;5002428;28;20026;-87
2021/11/10 10:00:22;;;;;;;41.30;20.98;;;;;;;2.92;93.10;99562.75;5002215;28;20101;-87
2021/11/10 10:02:49;;;;;;;34.15;16.73;;;;;;;3.02;92.62;99553.44;5002323;28;20050;-87
2021/11/10 10:05:16;;;;;;;37.00;16.60;;;;;;;2.92;92.48;99561.88;5002345;28;20025;-87
2021/11/10 10:07:44;;;;;;;32.50;17.15;;;;;;;2.83;92.50;99562.53;5002207;28;20353;-87
2021/11/10 10:10:09;;;;;;;37.50;18.42;;;;;;;2.88;92.48;99552.25;5002665;28;20057;-87
2021/11/10 10:12:35;;;;;;;42.95;19.80;;;;;;;2.96;92.85;99538.59;5004323;28;20345;-87
2021/11/10 10:15:02;;;;;;;37.90;21.58;;;;;;;3.15;93.69;99553.81;5006337;28;20036;-87
2021/11/10 10:17:44;;;;;;;47.70;23.80;;;;;;;3.45;93.64;99551.91;5006337;28;20057;-87
2021/11/10 10:20:33;;;;;;;41.50;22.00;;;;;;;3.95;92.55;99556.53;5006237;28;20093;-87
2021/11/10 10:23:09;;;;;;;41.33;20.80;;;;;;;4.12;91.51;99564.69;5006259;28;20217;-87
2021/11/10 10:25:47;;;;;;;36.95;20.17;;;;;;;4.21;92.47;99554.47;5005623;28;20018;-87
2021/11/10 10:28:17;;;;;;;37.47;19.48;;;;;;;4.65;91.00;99557.94;5006266;28;20022;-87
2021/11/10 10:30:51;;;;;;;37.03;17.48;;;;;;;4.81;89.73;99549.53;5005844;28;20026;-87
2021/11/10 10:33:26;;;;;;;30.15;16.48;;;;;;;5.00;90.65;99554.22;5005655;28;20341;-87
2021/11/10 10:36:00;;;;;;;29.85;14.40;;;;;;;5.01;89.62;99554.25;5006858;28;20226;-87
2021/11/10 10:38:36;;;;;;;39.05;20.17;;;;;;;4.76;90.35;99551.16;5005679;28;20328;-87
2021/11/10 10:41:04;;;;;;;37.35;18.45;;;;;;;4.84;90.50;99555.66;5005393;28;20022;-87
2021/11/10 10:43:37;;;;;;;29.05;15.80;;;;;;;5.21;89.87;99558.06;5005237;28;20253;-87
2021/11/10 10:46:02;;;;;;;31.63;16.85;;;;;;;5.36;88.98;99552.22;5002900;28;20094;-87
2021/11/10 10:48:29;;;;;;;32.78;17.45;;;;;;;5.39;89.25;99553.16;5005150;28;20049;-87
2021/11/10 10:50:56;;;;;;;32.90;17.85;;;;;;;5.35;89.59;99545.25;5006210;28;20049;-87
2021/11/10 10:53:33;;;;;;;31.35;15.52;;;;;;;5.06;90.32;99541.28;5005166;28;20309;-87
2021/11/10 10:55:59;;;;;;;30.08;15.27;;;;;;;5.21;90.41;99598.94;5004873;28;20046;-87
2021/11/10 10:58:35;;;;;;;30.77;15.48;;;;;;;5.31;89.95;99562.56;5005211;28;20030;-87
2021/11/10 11:01:17;;;;;;;30.67;15.18;;;;;;;5.75;89.35;99569.34;5005111;28;20018;-87
2021/11/10 11:03:50;;;;;;;26.70;13.57;;;;;;;6.00;88.39;99570.59;5005251;28;20327;-87
2021/11/10 11:06:31;;;;;;;30.85;15.15;;;;;;;6.24;87.77;99581.38;5004312;28;20053;-87
2021/11/10 11:09:19;;;;;;;40.30;16.13;;;;;;;6.41;88.76;99574.63;5004934;28;20045;-87
2021/11/10 11:11:59;;;;;;;26.88;14.10;;;;;;;6.83;87.57;99575.09;5002471;28;20018;-87
2021/11/10 11:17:18;;;;;;;24.30;13.25;;;;;;;7.46;85.60;99575.69;5003207;28;20022;-87
2021/11/10 11:20:00;;;;;;;23.67;12.77;;;;;;;7.60;83.76;99566.19;5002329;28;20096;-87
2021/11/10 11:22:28;;;;;;;28.20;13.80;;;;;;;7.78;82.88;99568.94;5002561;28;20226;-87